sensor_id;sensor_type;location;lat;lon;timestamp;P1;durP1;ratioP1;P2;durP2;ratioP2
68365;SDS011;55283;51.466;5.478;2022-10-18T00:00:54;2.03;;;1.67;;
68365;SDS011;55283;51.466;5.478;2022-10-18T00:03:19;2.47;;;1.70;;
68365;SDS011;55283;51.466;5.478;2022-10-18T00:05:46;2.70;;;1.90;;
68365;SDS011;55283;51.466;5.478;2022-10-18T00:08:12;2.90;;;1.90;;
68365;SDS011;55283;51.466;5.478;2022-10-18T00:10:37;2.75;;;1.83;;
68365;SDS011;55283;51.466;5.478;2022-10-18T00:13:03;3.20;;;1.97;;
68365;SDS011;55283;51.466;5.478;2022-10-18T00:15:28;2.70;;;2.10;;
68365;SDS011;55283;51.466;5.478;2022-10-18T00:24:37;1.95;;;1.70;;
68365;SDS011;55283;51.466;5.478;2022-10-18T00:27:02;2.20;;;1.90;;
68365;SDS011;55283;51.466;5.478;2022-10-18T00:38:39;2.90;;;2.30;;
68365;SDS011;55283;51.466;5.478;2022-10-18T00:41:06;3.03;;;1.90;;
68365;SDS011;55283;51.466;5.478;2022-10-18T00:43:49;2.40;;;1.90;;
68365;SDS011;55283;51.466;5.478;2022-10-18T00:46:19;2.35;;;1.98;;
68365;SDS011;55283;51.466;5.478;2022-10-18T00:48:44;2.90;;;2.00;;
68365;SDS011;55283;51.466;5.478;2022-10-18T00:51:10;2.83;;;1.90;;
68365;SDS011;55283;51.466;5.478;2022-10-18T00:53:36;2.83;;;1.98;;
68365;SDS011;55283;51.466;5.478;2022-10-18T00:56:02;1.97;;;1.80;;
68365;SDS011;55283;51.466;5.478;2022-10-18T00:58:27;2.63;;;1.80;;
68365;SDS011;55283;51.466;5.478;2022-10-18T01:00:53;2.00;;;1.80;;
68365;SDS011;55283;51.466;5.478;2022-10-18T01:03:18;2.23;;;1.93;;
68365;SDS011;55283;51.466;5.478;2022-10-18T01:05:44;2.80;;;2.07;;
68365;SDS011;55283;51.466;5.478;2022-10-18T01:11:11;2.33;;;2.00;;
68365;SDS011;55283;51.466;5.478;2022-10-18T01:21:50;2.72;;;1.80;;
68365;SDS011;55283;51.466;5.478;2022-10-18T01:32:49;2.63;;;2.03;;
68365;SDS011;55283;51.466;5.478;2022-10-18T01:35:21;3.65;;;1.85;;
68365;SDS011;55283;51.466;5.478;2022-10-18T01:37:51;2.40;;;1.90;;
68365;SDS011;55283;51.466;5.478;2022-10-18T01:40:21;2.38;;;2.05;;
68365;SDS011;55283;51.466;5.478;2022-10-18T01:42:48;2.42;;;2.00;;
68365;SDS011;55283;51.466;5.478;2022-10-18T01:45:15;2.40;;;1.97;;
68365;SDS011;55283;51.466;5.478;2022-10-18T01:47:44;2.60;;;2.10;;
68365;SDS011;55283;51.466;5.478;2022-10-18T01:50:11;1.88;;;1.70;;
68365;SDS011;55283;51.466;5.478;2022-10-18T01:52:47;2.43;;;1.80;;
68365;SDS011;55283;51.466;5.478;2022-10-18T01:55:13;2.35;;;1.98;;
68365;SDS011;55283;51.466;5.478;2022-10-18T01:57:40;1.77;;;1.67;;
68365;SDS011;55283;51.466;5.478;2022-10-18T02:02:43;2.88;;;1.98;;
68365;SDS011;55283;51.466;5.478;2022-10-18T02:08:38;2.17;;;1.97;;
68365;SDS011;55283;51.466;5.478;2022-10-18T02:11:09;2.92;;;1.98;;
68365;SDS011;55283;51.466;5.478;2022-10-18T02:13:38;2.15;;;1.90;;
68365;SDS011;55283;51.466;5.478;2022-10-18T02:16:07;2.20;;;1.90;;
68365;SDS011;55283;51.466;5.478;2022-10-18T02:18:37;2.43;;;1.80;;
68365;SDS011;55283;51.466;5.478;2022-10-18T02:21:07;2.00;;;1.80;;
68365;SDS011;55283;51.466;5.478;2022-10-18T02:23:36;2.70;;;1.60;;
68365;SDS011;55283;51.466;5.478;2022-10-18T02:26:03;2.30;;;1.80;;
68365;SDS011;55283;51.466;5.478;2022-10-18T02:28:28;2.05;;;1.80;;
68365;SDS011;55283;51.466;5.478;2022-10-18T02:36:48;2.08;;;1.88;;
68365;SDS011;55283;51.466;5.478;2022-10-18T02:39:18;1.90;;;1.70;;
68365;SDS011;55283;51.466;5.478;2022-10-18T02:41:47;2.10;;;1.90;;
68365;SDS011;55283;51.466;5.478;2022-10-18T02:44:13;2.53;;;1.80;;
68365;SDS011;55283;51.466;5.478;2022-10-18T02:46:38;2.27;;;1.93;;
68365;SDS011;55283;51.466;5.478;2022-10-18T02:49:04;3.50;;;1.98;;
68365;SDS011;55283;51.466;5.478;2022-10-18T02:51:30;2.53;;;1.90;;
68365;SDS011;55283;51.466;5.478;2022-10-18T02:53:55;2.93;;;1.87;;
68365;SDS011;55283;51.466;5.478;2022-10-18T02:56:21;2.23;;;2.03;;
68365;SDS011;55283;51.466;5.478;2022-10-18T02:58:46;2.40;;;1.83;;
68365;SDS011;55283;51.466;5.478;2022-10-18T03:01:12;2.63;;;1.90;;
68365;SDS011;55283;51.466;5.478;2022-10-18T03:03:37;2.47;;;2.00;;
68365;SDS011;55283;51.466;5.478;2022-10-18T03:06:03;4.40;;;2.05;;
68365;SDS011;55283;51.466;5.478;2022-10-18T03:08:28;2.20;;;1.80;;
68365;SDS011;55283;51.466;5.478;2022-10-18T03:10:54;4.32;;;1.92;;
68365;SDS011;55283;51.466;5.478;2022-10-18T03:13:19;4.53;;;1.90;;
68365;SDS011;55283;51.466;5.478;2022-10-18T03:15:45;2.53;;;2.10;;
68365;SDS011;55283;51.466;5.478;2022-10-18T03:18:11;2.30;;;2.00;;
68365;SDS011;55283;51.466;5.478;2022-10-18T03:20:37;3.65;;;2.00;;
68365;SDS011;55283;51.466;5.478;2022-10-18T03:23:02;2.37;;;1.90;;
68365;SDS011;55283;51.466;5.478;2022-10-18T03:25:28;2.90;;;2.10;;
68365;SDS011;55283;51.466;5.478;2022-10-18T03:27:53;2.33;;;2.00;;
68365;SDS011;55283;51.466;5.478;2022-10-18T03:30:18;1.90;;;1.80;;
68365;SDS011;55283;51.466;5.478;2022-10-18T03:32:44;2.03;;;1.83;;
68365;SDS011;55283;51.466;5.478;2022-10-18T03:35:09;2.47;;;2.00;;
68365;SDS011;55283;51.466;5.478;2022-10-18T03:37:35;2.83;;;2.10;;
68365;SDS011;55283;51.466;5.478;2022-10-18T03:40:01;3.03;;;1.93;;
68365;SDS011;55283;51.466;5.478;2022-10-18T03:42:27;2.20;;;1.77;;
68365;SDS011;55283;51.466;5.478;2022-10-18T03:44:52;2.40;;;1.90;;
68365;SDS011;55283;51.466;5.478;2022-10-18T03:47:18;2.65;;;2.17;;
68365;SDS011;55283;51.466;5.478;2022-10-18T03:49:43;2.13;;;1.93;;
68365;SDS011;55283;51.466;5.478;2022-10-18T03:52:09;2.17;;;1.80;;
68365;SDS011;55283;51.466;5.478;2022-10-18T03:54:34;2.37;;;2.13;;
68365;SDS011;55283;51.466;5.478;2022-10-18T03:56:59;2.20;;;2.00;;
68365;SDS011;55283;51.466;5.478;2022-10-18T03:59:25;3.75;;;2.15;;
68365;SDS011;55283;51.466;5.478;2022-10-18T04:01:50;2.53;;;2.10;;
68365;SDS011;55283;51.466;5.478;2022-10-18T04:04:16;3.63;;;2.00;;
68365;SDS011;55283;51.466;5.478;2022-10-18T04:06:41;2.60;;;2.00;;
68365;SDS011;55283;51.466;5.478;2022-10-18T04:09:06;2.30;;;2.10;;
68365;SDS011;55283;51.466;5.478;2022-10-18T04:11:32;2.50;;;2.17;;
68365;SDS011;55283;51.466;5.478;2022-10-18T04:13:57;2.57;;;2.10;;
68365;SDS011;55283;51.466;5.478;2022-10-18T04:16:23;2.00;;;1.80;;
68365;SDS011;55283;51.466;5.478;2022-10-18T04:18:49;3.13;;;2.30;;
68365;SDS011;55283;51.466;5.478;2022-10-18T04:21:14;2.37;;;2.03;;
68365;SDS011;55283;51.466;5.478;2022-10-18T04:23:39;2.70;;;2.00;;
68365;SDS011;55283;51.466;5.478;2022-10-18T04:26:05;3.03;;;2.10;;
68365;SDS011;55283;51.466;5.478;2022-10-18T04:28:31;2.10;;;1.90;;
68365;SDS011;55283;51.466;5.478;2022-10-18T04:30:57;3.70;;;2.28;;
68365;SDS011;55283;51.466;5.478;2022-10-18T04:33:23;2.70;;;2.30;;
68365;SDS011;55283;51.466;5.478;2022-10-18T04:35:50;2.60;;;2.10;;
68365;SDS011;55283;51.466;5.478;2022-10-18T04:38:16;2.40;;;2.20;;
68365;SDS011;55283;51.466;5.478;2022-10-18T04:40:42;2.55;;;2.35;;
68365;SDS011;55283;51.466;5.478;2022-10-18T04:43:07;2.87;;;2.37;;
68365;SDS011;55283;51.466;5.478;2022-10-18T04:45:33;3.10;;;2.40;;
68365;SDS011;55283;51.466;5.478;2022-10-18T04:47:59;3.13;;;2.40;;
68365;SDS011;55283;51.466;5.478;2022-10-18T04:50:24;2.47;;;2.10;;
68365;SDS011;55283;51.466;5.478;2022-10-18T04:52:49;2.30;;;2.10;;
68365;SDS011;55283;51.466;5.478;2022-10-18T04:55:15;2.83;;;2.43;;
68365;SDS011;55283;51.466;5.478;2022-10-18T04:57:40;4.30;;;2.30;;
68365;SDS011;55283;51.466;5.478;2022-10-18T05:00:06;3.10;;;2.23;;
68365;SDS011;55283;51.466;5.478;2022-10-18T05:02:31;2.57;;;2.37;;
68365;SDS011;55283;51.466;5.478;2022-10-18T05:04:57;4.20;;;2.40;;
68365;SDS011;55283;51.466;5.478;2022-10-18T05:07:22;2.90;;;2.10;;
68365;SDS011;55283;51.466;5.478;2022-10-18T05:09:47;2.73;;;2.30;;
68365;SDS011;55283;51.466;5.478;2022-10-18T05:12:13;2.83;;;2.33;;
68365;SDS011;55283;51.466;5.478;2022-10-18T05:14:38;2.90;;;2.47;;
68365;SDS011;55283;51.466;5.478;2022-10-18T05:17:04;2.80;;;2.15;;
68365;SDS011;55283;51.466;5.478;2022-10-18T05:19:29;3.83;;;2.27;;
68365;SDS011;55283;51.466;5.478;2022-10-18T05:21:54;2.30;;;2.10;;
68365;SDS011;55283;51.466;5.478;2022-10-18T05:24:20;3.13;;;2.30;;
68365;SDS011;55283;51.466;5.478;2022-10-18T05:26:45;2.30;;;2.10;;
68365;SDS011;55283;51.466;5.478;2022-10-18T05:29:11;3.10;;;2.30;;
68365;SDS011;55283;51.466;5.478;2022-10-18T05:31:36;2.15;;;1.95;;
68365;SDS011;55283;51.466;5.478;2022-10-18T05:34:02;3.03;;;2.30;;
68365;SDS011;55283;51.466;5.478;2022-10-18T05:36:27;2.50;;;2.20;;
68365;SDS011;55283;51.466;5.478;2022-10-18T05:38:52;3.53;;;2.47;;
68365;SDS011;55283;51.466;5.478;2022-10-18T05:41:18;2.83;;;2.55;;
68365;SDS011;55283;51.466;5.478;2022-10-18T05:43:44;2.53;;;2.33;;
68365;SDS011;55283;51.466;5.478;2022-10-18T05:46:09;2.77;;;2.17;;
68365;SDS011;55283;51.466;5.478;2022-10-18T05:48:36;2.60;;;2.20;;
68365;SDS011;55283;51.466;5.478;2022-10-18T05:51:01;3.53;;;2.10;;
68365;SDS011;55283;51.466;5.478;2022-10-18T05:53:27;2.67;;;2.15;;
68365;SDS011;55283;51.466;5.478;2022-10-18T05:55:53;3.33;;;2.20;;
68365;SDS011;55283;51.466;5.478;2022-10-18T05:58:18;4.07;;;2.50;;
68365;SDS011;55283;51.466;5.478;2022-10-18T06:00:44;2.97;;;2.40;;
68365;SDS011;55283;51.466;5.478;2022-10-18T06:03:09;2.33;;;2.10;;
68365;SDS011;55283;51.466;5.478;2022-10-18T06:05:34;2.77;;;2.13;;
68365;SDS011;55283;51.466;5.478;2022-10-18T06:08:00;2.70;;;2.20;;
68365;SDS011;55283;51.466;5.478;2022-10-18T06:10:25;2.65;;;2.15;;
68365;SDS011;55283;51.466;5.478;2022-10-18T06:12:51;4.23;;;2.40;;
68365;SDS011;55283;51.466;5.478;2022-10-18T06:15:16;4.10;;;2.30;;
68365;SDS011;55283;51.466;5.478;2022-10-18T06:17:41;3.57;;;2.30;;
68365;SDS011;55283;51.466;5.478;2022-10-18T06:20:07;5.35;;;2.35;;
68365;SDS011;55283;51.466;5.478;2022-10-18T06:22:33;6.20;;;2.33;;
68365;SDS011;55283;51.466;5.478;2022-10-18T06:24:58;8.77;;;3.00;;
68365;SDS011;55283;51.466;5.478;2022-10-18T06:27:24;5.70;;;4.13;;
68365;SDS011;55283;51.466;5.478;2022-10-18T06:29:49;7.27;;;4.07;;
68365;SDS011;55283;51.466;5.478;2022-10-18T06:32:15;8.97;;;4.27;;
68365;SDS011;55283;51.466;5.478;2022-10-18T06:34:40;6.28;;;5.10;;
68365;SDS011;55283;51.466;5.478;2022-10-18T06:37:05;7.73;;;4.87;;
68365;SDS011;55283;51.466;5.478;2022-10-18T06:39:32;8.35;;;4.88;;
68365;SDS011;55283;51.466;5.478;2022-10-18T06:41:57;9.83;;;5.47;;
68365;SDS011;55283;51.466;5.478;2022-10-18T06:44:23;8.70;;;5.30;;
68365;SDS011;55283;51.466;5.478;2022-10-18T06:46:49;7.78;;;5.43;;
68365;SDS011;55283;51.466;5.478;2022-10-18T06:49:17;9.35;;;5.65;;
68365;SDS011;55283;51.466;5.478;2022-10-18T06:51:43;7.73;;;4.83;;
68365;SDS011;55283;51.466;5.478;2022-10-18T06:54:08;7.43;;;4.30;;
68365;SDS011;55283;51.466;5.478;2022-10-18T06:56:34;7.03;;;4.50;;
68365;SDS011;55283;51.466;5.478;2022-10-18T06:59:00;6.20;;;4.30;;
68365;SDS011;55283;51.466;5.478;2022-10-18T07:01:26;9.85;;;3.83;;
68365;SDS011;55283;51.466;5.478;2022-10-18T07:03:52;5.03;;;3.77;;
68365;SDS011;55283;51.466;5.478;2022-10-18T07:06:18;7.25;;;3.75;;
68365;SDS011;55283;51.466;5.478;2022-10-18T07:08:45;5.50;;;3.53;;
68365;SDS011;55283;51.466;5.478;2022-10-18T07:11:16;6.03;;;3.50;;
68365;SDS011;55283;51.466;5.478;2022-10-18T07:13:48;5.05;;;3.50;;
68365;SDS011;55283;51.466;5.478;2022-10-18T07:16:14;6.10;;;3.20;;
68365;SDS011;55283;51.466;5.478;2022-10-18T07:18:42;4.50;;;3.23;;
68365;SDS011;55283;51.466;5.478;2022-10-18T07:21:11;4.05;;;3.03;;
68365;SDS011;55283;51.466;5.478;2022-10-18T07:23:38;4.13;;;2.95;;
68365;SDS011;55283;51.466;5.478;2022-10-18T07:26:23;5.63;;;3.13;;
68365;SDS011;55283;51.466;5.478;2022-10-18T07:28:52;4.60;;;3.13;;
68365;SDS011;55283;51.466;5.478;2022-10-18T07:31:21;4.78;;;3.08;;
68365;SDS011;55283;51.466;5.478;2022-10-18T07:33:48;6.20;;;3.05;;
68365;SDS011;55283;51.466;5.478;2022-10-18T07:36:13;5.20;;;2.90;;
68365;SDS011;55283;51.466;5.478;2022-10-18T07:38:39;11.27;;;2.80;;
68365;SDS011;55283;51.466;5.478;2022-10-18T07:41:05;4.50;;;3.05;;
68365;SDS011;55283;51.466;5.478;2022-10-18T07:43:32;4.83;;;3.30;;
68365;SDS011;55283;51.466;5.478;2022-10-18T07:45:59;5.70;;;3.60;;
68365;SDS011;55283;51.466;5.478;2022-10-18T07:48:26;5.55;;;3.75;;
68365;SDS011;55283;51.466;5.478;2022-10-18T07:50:52;5.83;;;3.70;;
68365;SDS011;55283;51.466;5.478;2022-10-18T07:53:18;7.22;;;3.58;;
68365;SDS011;55283;51.466;5.478;2022-10-18T07:55:43;5.93;;;3.37;;
68365;SDS011;55283;51.466;5.478;2022-10-18T07:58:09;6.03;;;3.23;;
68365;SDS011;55283;51.466;5.478;2022-10-18T08:00:34;3.83;;;2.97;;
68365;SDS011;55283;51.466;5.478;2022-10-18T08:03:00;5.90;;;3.50;;
68365;SDS011;55283;51.466;5.478;2022-10-18T08:05:26;6.47;;;3.25;;
68365;SDS011;55283;51.466;5.478;2022-10-18T08:07:52;4.95;;;3.15;;
68365;SDS011;55283;51.466;5.478;2022-10-18T08:10:18;4.60;;;2.83;;
68365;SDS011;55283;51.466;5.478;2022-10-18T08:12:45;5.70;;;3.17;;
68365;SDS011;55283;51.466;5.478;2022-10-18T08:15:10;4.30;;;2.90;;
68365;SDS011;55283;51.466;5.478;2022-10-18T08:17:36;4.20;;;2.93;;
68365;SDS011;55283;51.466;5.478;2022-10-18T08:20:02;3.47;;;2.60;;
68365;SDS011;55283;51.466;5.478;2022-10-18T08:22:27;3.50;;;2.90;;
68365;SDS011;55283;51.466;5.478;2022-10-18T08:24:53;6.17;;;3.30;;
68365;SDS011;55283;51.466;5.478;2022-10-18T08:27:18;8.13;;;3.17;;
68365;SDS011;55283;51.466;5.478;2022-10-18T08:29:43;4.90;;;3.10;;
68365;SDS011;55283;51.466;5.478;2022-10-18T08:32:09;5.40;;;3.30;;
68365;SDS011;55283;51.466;5.478;2022-10-18T08:34:34;3.55;;;2.78;;
68365;SDS011;55283;51.466;5.478;2022-10-18T08:37:00;4.13;;;3.00;;
68365;SDS011;55283;51.466;5.478;2022-10-18T08:39:26;5.15;;;3.00;;
68365;SDS011;55283;51.466;5.478;2022-10-18T08:44:43;5.90;;;2.70;;
68365;SDS011;55283;51.466;5.478;2022-10-18T08:47:12;7.43;;;2.78;;
68365;SDS011;55283;51.466;5.478;2022-10-18T08:49:45;4.03;;;2.60;;
68365;SDS011;55283;51.466;5.478;2022-10-18T08:57:44;4.70;;;2.67;;
68365;SDS011;55283;51.466;5.478;2022-10-18T09:00:15;3.75;;;2.70;;
68365;SDS011;55283;51.466;5.478;2022-10-18T09:11:07;4.20;;;2.65;;
68365;SDS011;55283;51.466;5.478;2022-10-18T09:16:20;4.60;;;2.83;;
68365;SDS011;55283;51.466;5.478;2022-10-18T09:21:44;5.68;;;2.50;;
68365;SDS011;55283;51.466;5.478;2022-10-18T09:24:26;3.13;;;2.40;;
68365;SDS011;55283;51.466;5.478;2022-10-18T09:27:04;4.78;;;2.30;;
68365;SDS011;55283;51.466;5.478;2022-10-18T09:37:43;4.55;;;2.50;;
68365;SDS011;55283;51.466;5.478;2022-10-18T09:43:22;4.13;;;2.60;;
68365;SDS011;55283;51.466;5.478;2022-10-18T09:45:55;3.85;;;2.30;;
68365;SDS011;55283;51.466;5.478;2022-10-18T09:51:17;4.03;;;2.70;;
68365;SDS011;55283;51.466;5.478;2022-10-18T09:53:57;4.50;;;2.80;;
68365;SDS011;55283;51.466;5.478;2022-10-18T10:02:15;5.03;;;2.63;;
68365;SDS011;55283;51.466;5.478;2022-10-18T10:04:43;6.43;;;2.50;;
68365;SDS011;55283;51.466;5.478;2022-10-18T10:07:16;3.45;;;2.40;;
68365;SDS011;55283;51.466;5.478;2022-10-18T10:09:47;5.70;;;2.50;;
68365;SDS011;55283;51.466;5.478;2022-10-18T10:12:34;4.88;;;2.47;;
68365;SDS011;55283;51.466;5.478;2022-10-18T10:15:20;3.20;;;2.10;;
68365;SDS011;55283;51.466;5.478;2022-10-18T10:20:35;4.90;;;2.35;;
68365;SDS011;55283;51.466;5.478;2022-10-18T10:23:29;9.43;;;3.30;;
68365;SDS011;55283;51.466;5.478;2022-10-18T10:26:23;53.87;;;19.50;;
68365;SDS011;55283;51.466;5.478;2022-10-18T10:28:52;28.27;;;12.55;;
68365;SDS011;55283;51.466;5.478;2022-10-18T10:31:31;43.50;;;20.97;;
68365;SDS011;55283;51.466;5.478;2022-10-18T10:34:04;41.85;;;19.52;;
68365;SDS011;55283;51.466;5.478;2022-10-18T10:36:48;35.55;;;15.02;;
68365;SDS011;55283;51.466;5.478;2022-10-18T10:39:16;25.05;;;11.15;;
68365;SDS011;55283;51.466;5.478;2022-10-18T10:42:01;27.23;;;10.17;;
68365;SDS011;55283;51.466;5.478;2022-10-18T10:44:30;18.33;;;7.82;;
68365;SDS011;55283;51.466;5.478;2022-10-18T10:47:00;18.33;;;8.10;;
68365;SDS011;55283;51.466;5.478;2022-10-18T10:52:02;18.80;;;6.88;;
68365;SDS011;55283;51.466;5.478;2022-10-18T10:54:29;19.30;;;6.93;;
68365;SDS011;55283;51.466;5.478;2022-10-18T11:02:17;16.45;;;6.10;;
68365;SDS011;55283;51.466;5.478;2022-10-18T11:04:52;13.32;;;5.22;;
68365;SDS011;55283;51.466;5.478;2022-10-18T11:07:26;13.50;;;5.03;;
68365;SDS011;55283;51.466;5.478;2022-10-18T11:09:59;14.90;;;4.93;;
68365;SDS011;55283;51.466;5.478;2022-10-18T11:12:36;12.55;;;5.22;;
68365;SDS011;55283;51.466;5.478;2022-10-18T11:17:45;13.80;;;4.53;;
68365;SDS011;55283;51.466;5.478;2022-10-18T11:20:23;14.00;;;5.00;;
68365;SDS011;55283;51.466;5.478;2022-10-18T11:23:00;14.33;;;4.77;;
68365;SDS011;55283;51.466;5.478;2022-10-18T11:30:49;10.67;;;4.03;;
68365;SDS011;55283;51.466;5.478;2022-10-18T11:33:35;11.93;;;4.38;;
68365;SDS011;55283;51.466;5.478;2022-10-18T11:36:11;9.10;;;3.73;;
68365;SDS011;55283;51.466;5.478;2022-10-18T11:39:01;9.00;;;3.65;;
68365;SDS011;55283;51.466;5.478;2022-10-18T11:44:24;9.53;;;3.93;;
68365;SDS011;55283;51.466;5.478;2022-10-18T11:49:33;10.53;;;3.37;;
68365;SDS011;55283;51.466;5.478;2022-10-18T11:52:10;9.65;;;3.42;;
68365;SDS011;55283;51.466;5.478;2022-10-18T12:05:57;7.20;;;3.13;;
68365;SDS011;55283;51.466;5.478;2022-10-18T12:08:30;6.40;;;2.80;;
68365;SDS011;55283;51.466;5.478;2022-10-18T12:11:06;11.18;;;3.28;;
68365;SDS011;55283;51.466;5.478;2022-10-18T12:13:42;8.50;;;3.13;;
68365;SDS011;55283;51.466;5.478;2022-10-18T12:16:12;7.17;;;3.00;;
68365;SDS011;55283;51.466;5.478;2022-10-18T12:18:55;5.93;;;2.63;;
68365;SDS011;55283;51.466;5.478;2022-10-18T12:21:24;5.38;;;2.70;;
68365;SDS011;55283;51.466;5.478;2022-10-18T12:23:55;6.27;;;2.70;;
68365;SDS011;55283;51.466;5.478;2022-10-18T12:26:26;5.72;;;2.70;;
68365;SDS011;55283;51.466;5.478;2022-10-18T12:31:39;6.43;;;2.50;;
68365;SDS011;55283;51.466;5.478;2022-10-18T12:39:27;5.55;;;2.70;;
68365;SDS011;55283;51.466;5.478;2022-10-18T12:41:57;5.93;;;2.70;;
68365;SDS011;55283;51.466;5.478;2022-10-18T12:47:06;6.00;;;2.73;;
68365;SDS011;55283;51.466;5.478;2022-10-18T12:49:35;5.67;;;2.40;;
68365;SDS011;55283;51.466;5.478;2022-10-18T12:52:21;6.00;;;2.60;;
68365;SDS011;55283;51.466;5.478;2022-10-18T13:16:23;6.32;;;2.30;;
68365;SDS011;55283;51.466;5.478;2022-10-18T13:18:56;5.40;;;2.20;;
68365;SDS011;55283;51.466;5.478;2022-10-18T13:26:57;5.53;;;2.10;;
68365;SDS011;55283;51.466;5.478;2022-10-18T13:41:14;4.82;;;2.00;;
68365;SDS011;55283;51.466;5.478;2022-10-18T13:46:18;3.30;;;1.70;;
68365;SDS011;55283;51.466;5.478;2022-10-18T14:00:18;4.03;;;2.00;;
68365;SDS011;55283;51.466;5.478;2022-10-18T14:06:15;4.40;;;1.90;;
68365;SDS011;55283;51.466;5.478;2022-10-18T14:11:55;4.05;;;1.80;;
68365;SDS011;55283;51.466;5.478;2022-10-18T14:14:54;3.73;;;1.83;;
68365;SDS011;55283;51.466;5.478;2022-10-18T14:17:37;4.40;;;1.92;;
68365;SDS011;55283;51.466;5.478;2022-10-18T14:20:18;2.90;;;1.65;;
68365;SDS011;55283;51.466;5.478;2022-10-18T14:22:55;5.17;;;1.77;;
68365;SDS011;55283;51.466;5.478;2022-10-18T14:25:30;4.03;;;1.90;;
68365;SDS011;55283;51.466;5.478;2022-10-18T14:30:29;4.27;;;1.60;;
68365;SDS011;55283;51.466;5.478;2022-10-18T14:32:54;4.22;;;1.73;;
68365;SDS011;55283;51.466;5.478;2022-10-18T14:35:21;4.13;;;1.90;;
68365;SDS011;55283;51.466;5.478;2022-10-18T14:37:50;4.72;;;1.83;;
68365;SDS011;55283;51.466;5.478;2022-10-18T14:43:02;3.30;;;1.70;;
68365;SDS011;55283;51.466;5.478;2022-10-18T14:45:30;4.50;;;1.92;;
68365;SDS011;55283;51.466;5.478;2022-10-18T14:48:03;4.13;;;2.00;;
68365;SDS011;55283;51.466;5.478;2022-10-18T14:50:30;5.57;;;1.92;;
68365;SDS011;55283;51.466;5.478;2022-10-18T14:52:55;5.93;;;2.07;;
68365;SDS011;55283;51.466;5.478;2022-10-18T14:55:25;17.20;;;1.97;;
68365;SDS011;55283;51.466;5.478;2022-10-18T14:57:56;5.70;;;1.48;;
68365;SDS011;55283;51.466;5.478;2022-10-18T15:00:23;3.67;;;1.50;;
68365;SDS011;55283;51.466;5.478;2022-10-18T15:02:52;6.85;;;2.20;;
68365;SDS011;55283;51.466;5.478;2022-10-18T15:05:19;6.30;;;2.20;;
68365;SDS011;55283;51.466;5.478;2022-10-18T15:07:47;12.23;;;2.93;;
68365;SDS011;55283;51.466;5.478;2022-10-18T15:10:19;6.25;;;2.00;;
68365;SDS011;55283;51.466;5.478;2022-10-18T15:12:47;5.88;;;2.00;;
68365;SDS011;55283;51.466;5.478;2022-10-18T15:15:17;6.85;;;2.90;;
68365;SDS011;55283;51.466;5.478;2022-10-18T15:17:45;4.90;;;2.00;;
68365;SDS011;55283;51.466;5.478;2022-10-18T15:20:20;5.40;;;2.15;;
68365;SDS011;55283;51.466;5.478;2022-10-18T15:22:49;4.47;;;1.80;;
68365;SDS011;55283;51.466;5.478;2022-10-18T15:25:22;4.47;;;2.00;;
68365;SDS011;55283;51.466;5.478;2022-10-18T15:27:51;4.97;;;1.80;;
68365;SDS011;55283;51.466;5.478;2022-10-18T15:33:00;5.70;;;2.10;;
68365;SDS011;55283;51.466;5.478;2022-10-18T15:35:33;7.22;;;2.20;;
68365;SDS011;55283;51.466;5.478;2022-10-18T15:38:12;7.90;;;2.33;;
68365;SDS011;55283;51.466;5.478;2022-10-18T15:40:38;6.53;;;2.00;;
68365;SDS011;55283;51.466;5.478;2022-10-18T15:43:49;5.03;;;2.00;;
68365;SDS011;55283;51.466;5.478;2022-10-18T15:45:50;5.47;;;2.00;;
68365;SDS011;55283;51.466;5.478;2022-10-18T15:48:22;6.90;;;2.13;;
68365;SDS011;55283;51.466;5.478;2022-10-18T15:55:46;5.30;;;2.10;;
68365;SDS011;55283;51.466;5.478;2022-10-18T15:58:25;8.43;;;2.08;;
68365;SDS011;55283;51.466;5.478;2022-10-18T16:01:17;5.15;;;1.90;;
68365;SDS011;55283;51.466;5.478;2022-10-18T16:03:46;6.10;;;2.00;;
68365;SDS011;55283;51.466;5.478;2022-10-18T16:06:13;6.30;;;2.00;;
68365;SDS011;55283;51.466;5.478;2022-10-18T16:08:46;4.93;;;2.17;;
68365;SDS011;55283;51.466;5.478;2022-10-18T16:11:18;5.13;;;2.00;;
68365;SDS011;55283;51.466;5.478;2022-10-18T16:13:48;5.67;;;2.10;;
68365;SDS011;55283;51.466;5.478;2022-10-18T16:16:15;7.22;;;2.10;;
68365;SDS011;55283;51.466;5.478;2022-10-18T16:18:42;8.05;;;2.17;;
68365;SDS011;55283;51.466;5.478;2022-10-18T16:21:12;4.93;;;1.77;;
68365;SDS011;55283;51.466;5.478;2022-10-18T16:23:42;4.30;;;1.75;;
68365;SDS011;55283;51.466;5.478;2022-10-18T16:26:07;4.43;;;2.10;;
68365;SDS011;55283;51.466;5.478;2022-10-18T16:28:33;4.85;;;1.67;;
68365;SDS011;55283;51.466;5.478;2022-10-18T16:31:00;4.80;;;1.90;;
68365;SDS011;55283;51.466;5.478;2022-10-18T16:33:27;5.57;;;1.65;;
68365;SDS011;55283;51.466;5.478;2022-10-18T16:35:53;7.60;;;1.80;;
68365;SDS011;55283;51.466;5.478;2022-10-18T16:38:29;4.90;;;1.87;;
68365;SDS011;55283;51.466;5.478;2022-10-18T16:40:56;5.13;;;1.63;;
68365;SDS011;55283;51.466;5.478;2022-10-18T16:43:22;4.83;;;1.77;;
68365;SDS011;55283;51.466;5.478;2022-10-18T16:45:48;6.30;;;1.80;;
68365;SDS011;55283;51.466;5.478;2022-10-18T16:48:15;5.53;;;1.83;;
68365;SDS011;55283;51.466;5.478;2022-10-18T16:50:43;4.63;;;1.48;;
68365;SDS011;55283;51.466;5.478;2022-10-18T16:53:09;5.03;;;1.80;;
68365;SDS011;55283;51.466;5.478;2022-10-18T16:55:35;4.63;;;1.50;;
68365;SDS011;55283;51.466;5.478;2022-10-18T16:58:02;4.90;;;1.75;;
68365;SDS011;55283;51.466;5.478;2022-10-18T17:00:27;2.73;;;1.67;;
68365;SDS011;55283;51.466;5.478;2022-10-18T17:02:53;4.20;;;1.70;;
68365;SDS011;55283;51.466;5.478;2022-10-18T17:05:18;4.97;;;1.60;;
68365;SDS011;55283;51.466;5.478;2022-10-18T17:07:44;4.60;;;1.87;;
68365;SDS011;55283;51.466;5.478;2022-10-18T17:10:11;4.38;;;2.00;;
68365;SDS011;55283;51.466;5.478;2022-10-18T17:12:38;4.50;;;1.60;;
68365;SDS011;55283;51.466;5.478;2022-10-18T17:15:04;3.90;;;1.80;;
68365;SDS011;55283;51.466;5.478;2022-10-18T17:17:29;3.95;;;1.83;;
68365;SDS011;55283;51.466;5.478;2022-10-18T17:19:55;5.17;;;1.70;;
68365;SDS011;55283;51.466;5.478;2022-10-18T17:22:20;4.07;;;1.90;;
68365;SDS011;55283;51.466;5.478;2022-10-18T17:24:46;6.32;;;1.63;;
68365;SDS011;55283;51.466;5.478;2022-10-18T17:27:11;5.00;;;1.70;;
68365;SDS011;55283;51.466;5.478;2022-10-18T17:29:37;3.30;;;1.63;;
68365;SDS011;55283;51.466;5.478;2022-10-18T17:32:02;3.67;;;1.60;;
68365;SDS011;55283;51.466;5.478;2022-10-18T17:34:28;5.50;;;1.67;;
68365;SDS011;55283;51.466;5.478;2022-10-18T17:36:53;4.87;;;1.70;;
68365;SDS011;55283;51.466;5.478;2022-10-18T17:39:19;3.45;;;1.67;;
68365;SDS011;55283;51.466;5.478;2022-10-18T17:41:45;5.10;;;1.93;;
68365;SDS011;55283;51.466;5.478;2022-10-18T17:44:10;7.33;;;1.97;;
68365;SDS011;55283;51.466;5.478;2022-10-18T17:46:36;6.50;;;2.00;;
68365;SDS011;55283;51.466;5.478;2022-10-18T17:49:01;4.57;;;1.70;;
68365;SDS011;55283;51.466;5.478;2022-10-18T17:51:26;4.57;;;1.70;;
68365;SDS011;55283;51.466;5.478;2022-10-18T17:53:52;3.27;;;1.70;;
68365;SDS011;55283;51.466;5.478;2022-10-18T17:56:18;2.85;;;1.60;;
68365;SDS011;55283;51.466;5.478;2022-10-18T17:58:43;3.93;;;1.70;;
68365;SDS011;55283;51.466;5.478;2022-10-18T18:01:20;4.03;;;1.65;;
68365;SDS011;55283;51.466;5.478;2022-10-18T18:03:47;3.43;;;1.70;;
68365;SDS011;55283;51.466;5.478;2022-10-18T18:08:45;3.13;;;1.50;;
68365;SDS011;55283;51.466;5.478;2022-10-18T18:11:12;3.25;;;1.50;;
68365;SDS011;55283;51.466;5.478;2022-10-18T18:13:38;5.20;;;1.88;;
68365;SDS011;55283;51.466;5.478;2022-10-18T18:18:36;3.58;;;1.73;;
68365;SDS011;55283;51.466;5.478;2022-10-18T18:21:01;2.50;;;1.40;;
68365;SDS011;55283;51.466;5.478;2022-10-18T18:23:27;3.07;;;1.67;;
68365;SDS011;55283;51.466;5.478;2022-10-18T18:25:56;2.85;;;1.77;;